Time;durP1;ratioP1;P1;durP2;ratioP2;P2;SDS_P1;SDS_P2;PMS_P1;PMS_P2;Temp;Humidity;BMP_temperature;BMP_pressure;BME280_temperature;BME280_humidity;BME280_pressure;Samples;Min_cycle;Max_cycle;Signal;HPM_P1;HPM_P2
2021/08/07 00:01:26;;;;;;;12.80;10.90;;;;;;;;;;4959257;28;20915;-95
2021/08/07 00:03:54;;;;;;;11.05;9.93;;;;;;;;;;4968365;28;20421;-96
2021/08/07 00:06:22;;;;;;;11.10;9.88;;;;;;;;;;4968671;28;20437;-96
2021/08/07 00:08:49;;;;;;;10.30;9.13;;;;;;;;;;4968724;28;20466;-96
2021/08/07 00:11:16;;;;;;;10.07;9.07;;;;;;;;;;4969008;28;20422;-95
2021/08/07 00:13:44;;;;;;;10.13;9.05;;;;;;;;;;4969013;28;20429;-96
2021/08/07 00:16:12;;;;;;;11.13;9.38;;;;;;;;;;4973833;28;20414;-95
2021/08/07 00:18:39;;;;;;;10.88;9.27;;;;;;;;;;4982988;28;20409;-96
2021/08/07 00:21:06;;;;;;;9.75;8.77;;;;;;;;;;4974490;28;20747;-96
2021/08/07 00:23:33;;;;;;;10.43;8.77;;;;;;;;;;4972848;28;20487;-95
2021/08/07 00:26:00;;;;;;;10.70;8.63;;;;;;;;;;4982176;28;20418;-95
2021/08/07 00:28:27;;;;;;;8.80;8.00;;;;;;;;;;4972537;28;21033;-94
2021/08/07 00:30:55;;;;;;;9.52;8.30;;;;;;;;;;4972753;28;20422;-95
2021/08/07 00:33:22;;;;;;;8.80;7.90;;;;;;;;;;4982171;28;21051;-95
2021/08/07 00:35:49;;;;;;;9.27;8.27;;;;;;;;;;4984831;28;20414;-96
2021/08/07 00:38:17;;;;;;;9.03;8.13;;;;;;;;;;4967959;28;20419;-95
2021/08/07 00:40:44;;;;;;;9.27;8.37;;;;;;;;;;4984188;28;20416;-95
2021/08/07 00:43:11;;;;;;;9.43;8.40;;;;;;;;;;4971485;28;20418;-95
2021/08/07 00:45:39;;;;;;;9.18;8.27;;;;;;;;;;4975841;28;20421;-95
2021/08/07 00:48:08;;;;;;;10.40;8.52;;;;;;;;;;4988294;28;20420;-94
2021/08/07 00:50:36;;;;;;;9.98;8.48;;;;;;;;;;4985952;28;20405;-95
2021/08/07 00:53:04;;;;;;;9.60;8.57;;;;;;;;;;4977617;28;20426;-95
2021/08/07 00:55:31;;;;;;;8.88;8.07;;;;;;;;;;4971917;28;20816;-95
2021/08/07 00:57:57;;;;;;;8.80;7.90;;;;;;;;;;4968131;28;20414;-95
2021/08/07 01:00:25;;;;;;;8.75;7.88;;;;;;;;;;4983245;28;20422;-96
2021/08/07 01:03:01;;;;;;;9.25;7.97;;;;;;;;;;4970990;28;20465;-95
2021/08/07 01:05:36;;;;;;;10.03;8.07;;;;;;;;;;4978635;28;20412;-95
2021/08/07 01:08:10;;;;;;;9.60;8.60;;;;;;;;;;4979402;28;20559;-95
2021/08/07 01:10:44;;;;;;;9.67;8.67;;;;;;;;;;4971786;28;20407;-95
2021/08/07 01:13:18;;;;;;;9.00;7.72;;;;;;;;;;4984126;28;20465;-95
2021/08/07 01:15:49;;;;;;;9.20;8.15;;;;;;;;;;4972497;28;20425;-96
2021/08/07 01:18:19;;;;;;;8.55;7.75;;;;;;;;;;4979544;28;20414;-95
2021/08/07 01:20:51;;;;;;;10.02;8.15;;;;;;;;;;4970941;28;20409;-95
2021/08/07 01:23:31;;;;;;;10.05;7.60;;;;;;;;;;4973942;28;20410;-95
2021/08/07 01:26:03;;;;;;;8.85;7.95;;;;;;;;;;4966808;28;20418;-95
2021/08/07 01:28:33;;;;;;;8.25;7.45;;;;;;;;;;4967993;28;20418;-95
2021/08/07 01:31:03;;;;;;;9.07;7.80;;;;;;;;;;4967533;28;20422;-96
2021/08/07 01:33:31;;;;;;;9.68;8.00;;;;;;;;;;4964134;28;20418;-94
2021/08/07 01:35:59;;;;;;;8.52;7.60;;;;;;;;;;4964572;28;20396;-95
2021/08/07 01:38:26;;;;;;;8.38;7.50;;;;;;;;;;4967122;28;20465;-95
2021/08/07 01:40:53;;;;;;;8.60;7.47;;;;;;;;;;4973013;28;20413;-95
2021/08/07 01:43:20;;;;;;;10.57;7.13;;;;;;;;;;4989125;28;20488;-95
2021/08/07 01:45:49;;;;;;;7.80;7.00;;;;;;;;;;4988243;28;20420;-96
2021/08/07 01:48:27;;;;;;;7.82;6.95;;;;;;;;;;4980171;28;20414;-95
2021/08/07 01:51:04;;;;;;;7.82;6.88;;;;;;;;;;4984498;28;20424;-95
2021/08/07 01:53:35;;;;;;;8.10;6.82;;;;;;;;;;4970477;28;20397;-96
2021/08/07 01:56:06;;;;;;;7.78;7.05;;;;;;;;;;4978736;28;20419;-95
2021/08/07 01:58:36;;;;;;;7.72;6.82;;;;;;;;;;4989163;28;20412;-95
2021/08/07 02:01:05;;;;;;;6.95;6.25;;;;;;;;;;4984713;28;20417;-95
2021/08/07 02:03:34;;;;;;;7.95;6.40;;;;;;;;;;4979168;28;20423;-95
2021/08/07 02:06:01;;;;;;;7.97;6.50;;;;;;;;;;4982296;28;20422;-95
2021/08/07 02:08:29;;;;;;;7.50;5.93;;;;;;;;;;4975329;28;20414;-95
2021/08/07 02:10:59;;;;;;;9.13;6.32;;;;;;;;;;4981910;28;20480;-95
2021/08/07 02:13:27;;;;;;;6.70;6.07;;;;;;;;;;4979202;28;20521;-94
2021/08/07 02:15:54;;;;;;;9.13;6.20;;;;;;;;;;4978553;28;20506;-96
2021/08/07 02:18:25;;;;;;;8.80;6.30;;;;;;;;;;4977874;28;20425;-95
2021/08/07 02:20:54;;;;;;;7.47;6.13;;;;;;;;;;4977752;28;20412;-95
2021/08/07 02:23:22;;;;;;;7.15;5.95;;;;;;;;;;4961106;28;20407;-95
2021/08/07 02:25:54;;;;;;;6.75;6.22;;;;;;;;;;4977336;28;20422;-95
2021/08/07 02:28:23;;;;;;;7.38;5.82;;;;;;;;;;4979144;28;20429;-95
2021/08/07 02:30:52;;;;;;;8.18;6.07;;;;;;;;;;4980709;28;20414;-96
2021/08/07 02:33:21;;;;;;;6.35;5.78;;;;;;;;;;4975811;28;20417;-95
2021/08/07 02:35:53;;;;;;;6.90;6.20;;;;;;;;;;4982625;28;20884;-96
2021/08/07 02:38:22;;;;;;;6.63;5.93;;;;;;;;;;4980927;28;20419;-95
2021/08/07 02:40:49;;;;;;;7.57;5.57;;;;;;;;;;4975181;28;20839;-95
2021/08/07 02:43:18;;;;;;;6.80;6.10;;;;;;;;;;4980373;28;20410;-95
2021/08/07 02:45:45;;;;;;;6.60;5.90;;;;;;;;;;4979564;28;20420;-95
2021/08/07 02:48:13;;;;;;;8.20;6.30;;;;;;;;;;4978097;28;20429;-95
2021/08/07 02:50:41;;;;;;;6.63;6.03;;;;;;;;;;4979351;28;20423;-95
2021/08/07 02:53:11;;;;;;;8.88;6.38;;;;;;;;;;4980879;28;20496;-95
2021/08/07 02:55:38;;;;;;;7.40;6.70;;;;;;;;;;4978097;28;20493;-95
2021/08/07 02:58:05;;;;;;;8.63;7.35;;;;;;;;;;4978758;28;20412;-96
2021/08/07 03:00:34;;;;;;;8.87;7.73;;;;;;;;;;4981390;28;21378;-95
2021/08/07 03:03:01;;;;;;;8.85;7.95;;;;;;;;;;4960943;28;20456;-96
2021/08/07 03:05:28;;;;;;;9.73;8.32;;;;;;;;;;4977667;28;20487;-95
2021/08/07 03:07:55;;;;;;;10.25;8.85;;;;;;;;;;4978027;28;20422;-95
2021/08/07 03:10:24;;;;;;;10.18;9.27;;;;;;;;;;4980814;28;20413;-95
2021/08/07 03:12:52;;;;;;;11.55;9.52;;;;;;;;;;4979114;28;20413;-95
2021/08/07 03:15:21;;;;;;;11.07;9.98;;;;;;;;;;4980388;28;20414;-95
2021/08/07 03:17:47;;;;;;;11.43;10.30;;;;;;;;;;4977122;28;20419;-96
2021/08/07 03:20:15;;;;;;;15.70;11.13;;;;;;;;;;4979748;28;20431;-95
2021/08/07 03:22:42;;;;;;;13.18;11.88;;;;;;;;;;4979172;28;20417;-96
2021/08/07 03:25:10;;;;;;;13.68;11.70;;;;;;;;;;4976032;28;20441;-96
2021/08/07 03:27:39;;;;;;;13.73;12.07;;;;;;;;;;4977825;28;20430;-96
2021/08/07 03:30:07;;;;;;;17.30;12.45;;;;;;;;;;4980361;28;20417;-96
2021/08/07 03:32:34;;;;;;;14.77;12.95;;;;;;;;;;4974589;28;20417;-96
2021/08/07 03:35:01;;;;;;;13.85;12.38;;;;;;;;;;4980911;28;20967;-96
2021/08/07 03:37:28;;;;;;;14.63;12.85;;;;;;;;;;4977812;28;20927;-96
2021/08/07 03:39:55;;;;;;;14.80;13.05;;;;;;;;;;4977828;28;20418;-96
2021/08/07 03:42:22;;;;;;;16.95;13.10;;;;;;;;;;4980854;28;20416;-95
2021/08/07 03:44:50;;;;;;;16.88;14.20;;;;;;;;;;4978630;28;20405;-95
2021/08/07 03:47:17;;;;;;;17.08;13.55;;;;;;;;;;4979606;28;20426;-96
2021/08/07 03:49:44;;;;;;;15.65;13.98;;;;;;;;;;4979063;28;20413;-96
2021/08/07 03:52:11;;;;;;;15.57;13.63;;;;;;;;;;4977625;28;20788;-96
2021/08/07 03:54:38;;;;;;;15.82;14.23;;;;;;;;;;4978475;28;20411;-96
2021/08/07 03:57:05;;;;;;;17.45;14.27;;;;;;;;;;4980127;28;20931;-95
2021/08/07 03:59:32;;;;;;;15.90;14.20;;;;;;;;;;4981924;28;20404;-96
2021/08/07 04:02:00;;;;;;;15.65;14.05;;;;;;;;;;4973304;28;20556;-96
2021/08/07 04:04:27;;;;;;;15.23;13.63;;;;;;;;;;4972334;28;20432;-95
2021/08/07 04:06:54;;;;;;;18.60;14.52;;;;;;;;;;4973181;28;20425;-96
2021/08/07 04:09:21;;;;;;;16.70;14.48;;;;;;;;;;4972351;28;20820;-96
2021/08/07 04:11:48;;;;;;;16.23;14.13;;;;;;;;;;4971579;28;20422;-96
2021/08/07 04:14:15;;;;;;;16.40;14.15;;;;;;;;;;4976677;28;20417;-96
2021/08/07 04:16:42;;;;;;;19.15;13.77;;;;;;;;;;4979333;28;20411;-96
2021/08/07 04:19:10;;;;;;;16.85;13.55;;;;;;;;;;4978053;28;20414;-95
2021/08/07 04:21:37;;;;;;;17.25;14.02;;;;;;;;;;4976811;28;20613;-95
2021/08/07 04:24:04;;;;;;;17.45;14.15;;;;;;;;;;4972480;28;20410;-96
2021/08/07 04:26:31;;;;;;;14.73;13.30;;;;;;;;;;4972438;28;20422;-96
2021/08/07 04:28:58;;;;;;;14.68;13.18;;;;;;;;;;4972157;28;20437;-96
2021/08/07 04:31:25;;;;;;;15.70;13.75;;;;;;;;;;4974327;28;20409;-96
2021/08/07 04:33:52;;;;;;;15.95;13.10;;;;;;;;;;4980978;28;20412;-95
2021/08/07 04:36:20;;;;;;;16.40;13.00;;;;;;;;;;4980734;28;20414;-96
2021/08/07 04:38:47;;;;;;;15.85;12.48;;;;;;;;;;4980047;28;20759;-96
2021/08/07 04:41:14;;;;;;;13.40;12.00;;;;;;;;;;4981067;28;20416;-95
2021/08/07 04:43:40;;;;;;;13.50;12.10;;;;;;;;;;4979885;28;20426;-95
2021/08/07 04:46:07;;;;;;;15.18;11.73;;;;;;;;;;4967790;28;20886;-96
2021/08/07 04:48:34;;;;;;;15.73;11.80;;;;;;;;;;4952476;29;20424;-95
2021/08/07 04:51:01;;;;;;;13.45;11.18;;;;;;;;;;4952975;29;20412;-95
2021/08/07 04:53:30;;;;;;;15.93;11.32;;;;;;;;;;4959599;28;20419;-95
2021/08/07 04:55:56;;;;;;;12.88;10.65;;;;;;;;;;4961105;28;20922;-95
2021/08/07 04:58:23;;;;;;;11.68;10.48;;;;;;;;;;4964576;28;20408;-95
2021/08/07 05:00:50;;;;;;;13.05;10.90;;;;;;;;;;4955191;28;20451;-95
2021/08/07 05:03:17;;;;;;;10.57;9.45;;;;;;;;;;4957870;28;20416;-96
2021/08/07 05:05:45;;;;;;;10.85;9.75;;;;;;;;;;4962582;28;20637;-95
2021/08/07 05:08:12;;;;;;;14.88;9.77;;;;;;;;;;4958828;28;20685;-95
2021/08/07 05:10:42;;;;;;;11.70;9.50;;;;;;;;;;4959511;28;20556;-95
2021/08/07 05:13:09;;;;;;;11.50;9.23;;;;;;;;;;4957915;28;20417;-96
2021/08/07 05:15:36;;;;;;;10.25;8.50;;;;;;;;;;4953337;28;20416;-96
2021/08/07 05:18:04;;;;;;;11.20;8.70;;;;;;;;;;4958053;28;20428;-96
2021/08/07 05:20:31;;;;;;;13.30;8.48;;;;;;;;;;4952390;29;20428;-96
2021/08/07 05:22:59;;;;;;;12.38;8.27;;;;;;;;;;4952065;28;20406;-96
2021/08/07 05:25:26;;;;;;;10.55;8.07;;;;;;;;;;4955433;28;20741;-96
2021/08/07 05:27:54;;;;;;;9.93;8.38;;;;;;;;;;4958248;28;20622;-95
2021/08/07 05:30:21;;;;;;;10.80;8.38;;;;;;;;;;4956164;28;20458;-95
2021/08/07 05:32:48;;;;;;;11.05;7.93;;;;;;;;;;4951416;29;20424;-96
2021/08/07 05:35:16;;;;;;;9.80;7.75;;;;;;;;;;4959042;28;20428;-94
2021/08/07 05:37:44;;;;;;;10.13;8.02;;;;;;;;;;4952135;29;20427;-96
2021/08/07 05:40:13;;;;;;;11.07;7.75;;;;;;;;;;4957697;28;20424;-96
2021/08/07 05:42:41;;;;;;;8.60;7.28;;;;;;;;;;4955882;28;20444;-95
2021/08/07 05:45:11;;;;;;;10.77;7.38;;;;;;;;;;4957263;28;20427;-95
2021/08/07 05:47:37;;;;;;;10.98;7.47;;;;;;;;;;4954913;28;20420;-96
2021/08/07 05:50:06;;;;;;;8.10;7.03;;;;;;;;;;4954937;28;20423;-96
2021/08/07 05:52:33;;;;;;;9.50;6.97;;;;;;;;;;4959941;28;20671;-96
2021/08/07 05:55:00;;;;;;;9.07;7.20;;;;;;;;;;4956958;28;20428;-94
2021/08/07 05:57:27;;;;;;;9.75;7.45;;;;;;;;;;4951589;29;20412;-95
2021/08/07 05:59:54;;;;;;;10.23;7.13;;;;;;;;;;4950826;29;20411;-95
2021/08/07 06:02:22;;;;;;;9.07;6.88;;;;;;;;;;4953426;28;20479;-95
2021/08/07 06:04:49;;;;;;;10.88;6.75;;;;;;;;;;4959872;28;20416;-95
2021/08/07 06:07:17;;;;;;;8.43;6.60;;;;;;;;;;4955255;28;20428;-96
2021/08/07 06:09:44;;;;;;;8.68;6.43;;;;;;;;;;4950955;29;20426;-95
2021/08/07 06:12:10;;;;;;;8.23;6.80;;;;;;;;;;4955118;28;20908;-96
2021/08/07 06:14:37;;;;;;;7.25;6.38;;;;;;;;;;4951357;29;20429;-95
2021/08/07 06:17:04;;;;;;;10.43;7.03;;;;;;;;;;4950923;29;20424;-95
2021/08/07 06:19:34;;;;;;;10.43;6.95;;;;;;;;;;4953077;28;20418;-94
2021/08/07 06:22:01;;;;;;;8.75;6.45;;;;;;;;;;4949662;29;20896;-95
2021/08/07 06:24:27;;;;;;;10.40;7.53;;;;;;;;;;4958311;28;20426;-95
2021/08/07 06:26:54;;;;;;;10.17;6.93;;;;;;;;;;4959653;28;20402;-96
2021/08/07 06:29:21;;;;;;;11.23;6.97;;;;;;;;;;4960240;28;20424;-95
2021/08/07 06:31:51;;;;;;;10.65;6.45;;;;;;;;;;4959949;28;20420;-95
2021/08/07 06:34:18;;;;;;;10.43;6.43;;;;;;;;;;4959619;28;20424;-95
2021/08/07 06:36:46;;;;;;;9.50;6.63;;;;;;;;;;4951040;29;20530;-96
2021/08/07 06:39:13;;;;;;;9.95;6.68;;;;;;;;;;4956131;28;20416;-96
2021/08/07 06:41:40;;;;;;;8.23;6.40;;;;;;;;;;4950586;29;20424;-95
2021/08/07 06:44:07;;;;;;;8.45;6.60;;;;;;;;;;4954234;28;20431;-95
2021/08/07 06:46:34;;;;;;;8.60;6.03;;;;;;;;;;4969093;28;20394;-94
2021/08/07 06:49:01;;;;;;;11.65;6.22;;;;;;;;;;4973152;28;20433;-95
2021/08/07 06:51:27;;;;;;;11.50;5.70;;;;;;;;;;4968191;28;20429;-95
2021/08/07 06:53:56;;;;;;;8.75;5.80;;;;;;;;;;4974943;28;20416;-95
2021/08/07 06:56:23;;;;;;;8.52;5.85;;;;;;;;;;4974233;28;20417;-95
2021/08/07 06:58:49;;;;;;;8.73;5.68;;;;;;;;;;4980498;28;20911;-95
2021/08/07 07:01:16;;;;;;;10.02;5.72;;;;;;;;;;4976339;28;20418;-95
2021/08/07 07:03:43;;;;;;;10.57;6.00;;;;;;;;;;4971471;28;20410;-95
2021/08/07 07:06:10;;;;;;;9.38;5.60;;;;;;;;;;4972372;28;20422;-94
2021/08/07 07:08:37;;;;;;;9.70;5.53;;;;;;;;;;4974237;28;20430;-95
2021/08/07 07:11:06;;;;;;;8.68;5.07;;;;;;;;;;4975602;28;20422;-95
2021/08/07 07:13:33;;;;;;;10.00;5.07;;;;;;;;;;4970005;28;20414;-95
2021/08/07 07:16:02;;;;;;;9.80;4.72;;;;;;;;;;4976960;28;20423;-95
2021/08/07 07:18:28;;;;;;;8.47;4.93;;;;;;;;;;4973822;28;20548;-96
2021/08/07 07:20:55;;;;;;;8.63;4.97;;;;;;;;;;4980505;28;20419;-95
2021/08/07 07:23:22;;;;;;;6.40;4.80;;;;;;;;;;4973074;28;21170;-95
2021/08/07 07:25:52;;;;;;;8.13;4.85;;;;;;;;;;4978883;28;20419;-96
2021/08/07 07:28:20;;;;;;;9.82;5.00;;;;;;;;;;4985425;28;20414;-96
2021/08/07 07:30:47;;;;;;;7.93;4.47;;;;;;;;;;4997259;28;20414;-95
2021/08/07 07:33:14;;;;;;;9.50;4.88;;;;;;;;;;5001245;28;20442;-95
2021/08/07 07:35:41;;;;;;;8.17;4.70;;;;;;;;;;4993098;28;20425;-95
2021/08/07 07:38:08;;;;;;;7.27;4.50;;;;;;;;;;4992885;28;20413;-95
2021/08/07 07:40:35;;;;;;;8.32;4.40;;;;;;;;;;4993584;28;20398;-96
2021/08/07 07:43:02;;;;;;;9.07;4.35;;;;;;;;;;4997134;28;20432;-96
2021/08/07 07:45:31;;;;;;;8.40;4.18;;;;;;;;;;4991794;28;20410;-95
2021/08/07 07:47:58;;;;;;;9.93;4.25;;;;;;;;;;4991278;28;20429;-96
2021/08/07 07:50:25;;;;;;;8.75;4.88;;;;;;;;;;4993485;28;20406;-95
2021/08/07 07:52:52;;;;;;;10.10;4.43;;;;;;;;;;5001503;28;20401;-96
2021/08/07 07:55:19;;;;;;;7.25;4.20;;;;;;;;;;5007672;28;20408;-93
2021/08/07 07:57:45;;;;;;;9.15;4.35;;;;;;;;;;5007178;28;20457;-95
2021/08/07 08:00:14;;;;;;;7.22;4.45;;;;;;;;;;5006720;28;20405;-96
2021/08/07 08:02:42;;;;;;;6.40;4.00;;;;;;;;;;4999076;28;20428;-95
2021/08/07 08:05:09;;;;;;;7.50;3.85;;;;;;;;;;4987466;28;20421;-95
2021/08/07 08:07:36;;;;;;;8.57;4.00;;;;;;;;;;4978306;28;20497;-95
2021/08/07 08:10:04;;;;;;;8.00;3.67;;;;;;;;;;4977811;28;20433;-95
2021/08/07 08:12:30;;;;;;;7.33;4.00;;;;;;;;;;4982424;28;20420;-95
2021/08/07 08:14:57;;;;;;;6.70;3.23;;;;;;;;;;4981490;28;20415;-96
2021/08/07 08:17:24;;;;;;;8.30;3.90;;;;;;;;;;4977451;28;20783;-96
2021/08/07 08:19:52;;;;;;;8.48;3.65;;;;;;;;;;4978660;28;20782;-95
2021/08/07 08:22:19;;;;;;;7.60;3.30;;;;;;;;;;4986443;28;21036;-96
2021/08/07 08:24:47;;;;;;;5.53;3.70;;;;;;;;;;4986335;28;20415;-95
2021/08/07 08:27:18;;;;;;;11.47;3.70;;;;;;;;;;4980383;28;20431;-96
2021/08/07 08:29:45;;;;;;;5.40;2.90;;;;;;;;;;4974866;28;20458;-95
2021/08/07 08:32:13;;;;;;;5.47;3.47;;;;;;;;;;4987435;28;20483;-95
2021/08/07 08:34:40;;;;;;;8.45;3.50;;;;;;;;;;4979487;28;20450;-95
2021/08/07 08:37:09;;;;;;;7.70;3.35;;;;;;;;;;4976181;28;20868;-94
2021/08/07 08:39:36;;;;;;;8.68;3.83;;;;;;;;;;4975224;28;20418;-96
2021/08/07 08:42:03;;;;;;;5.47;3.47;;;;;;;;;;4977843;28;20425;-96
2021/08/07 08:44:30;;;;;;;5.72;3.70;;;;;;;;;;4969940;28;20807;-96
2021/08/07 08:46:58;;;;;;;4.87;3.17;;;;;;;;;;4973391;28;20761;-96
2021/08/07 08:49:27;;;;;;;4.95;3.30;;;;;;;;;;4983563;28;20423;-96
2021/08/07 08:52:00;;;;;;;8.60;3.92;;;;;;;;;;4983884;28;20397;-96
2021/08/07 08:54:29;;;;;;;7.68;3.28;;;;;;;;;;4977217;28;20425;-95
2021/08/07 08:56:57;;;;;;;5.85;3.30;;;;;;;;;;4979981;28;20907;-96
2021/08/07 08:59:25;;;;;;;6.63;3.40;;;;;;;;;;4978147;28;20836;-96
2021/08/07 09:01:53;;;;;;;5.22;3.70;;;;;;;;;;4982334;28;20429;-95
2021/08/07 09:04:23;;;;;;;7.68;3.70;;;;;;;;;;4983719;28;20414;-96
2021/08/07 09:06:50;;;;;;;6.40;3.53;;;;;;;;;;4977755;28;20417;-96
2021/08/07 09:09:16;;;;;;;5.13;3.58;;;;;;;;;;4977524;28;20422;-96
2021/08/07 09:11:51;;;;;;;6.40;3.55;;;;;;;;;;4975559;28;20406;-96
2021/08/07 09:14:24;;;;;;;6.55;3.50;;;;;;;;;;4974737;28;20445;-96
2021/08/07 09:17:14;;;;;;;5.75;3.75;;;;;;;;;;4974674;28;20421;-96
2021/08/07 09:20:02;;;;;;;4.68;3.60;;;;;;;;;;4978011;28;20414;-96
2021/08/07 09:22:32;;;;;;;6.13;3.60;;;;;;;;;;4970178;28;20501;-96
2021/08/07 09:25:08;;;;;;;7.63;3.60;;;;;;;;;;4968701;28;20425;-95
2021/08/07 09:27:38;;;;;;;8.48;3.70;;;;;;;;;;4977322;28;20413;-96
2021/08/07 09:30:25;;;;;;;7.43;3.90;;;;;;;;;;4975445;28;20429;-95
2021/08/07 09:32:54;;;;;;;8.75;3.90;;;;;;;;;;4978274;28;20411;-96
2021/08/07 09:35:23;;;;;;;6.50;4.30;;;;;;;;;;4970974;28;21018;-96
2021/08/07 09:38:08;;;;;;;6.88;3.95;;;;;;;;;;4977354;28;20414;-96
2021/08/07 09:40:43;;;;;;;6.18;3.65;;;;;;;;;;4972855;28;20407;-95
2021/08/07 09:43:13;;;;;;;6.22;3.50;;;;;;;;;;4970630;28;20425;-96
2021/08/07 09:45:40;;;;;;;6.97;3.95;;;;;;;;;;4982440;28;20429;-95
2021/08/07 09:48:09;;;;;;;5.90;3.47;;;;;;;;;;4981948;28;20446;-96
2021/08/07 09:50:36;;;;;;;7.80;3.95;;;;;;;;;;4973947;28;20422;-96
2021/08/07 09:53:05;;;;;;;4.85;3.30;;;;;;;;;;4970539;28;20413;-96
2021/08/07 09:55:32;;;;;;;6.53;3.60;;;;;;;;;;4983074;28;20418;-96
2021/08/07 09:58:07;;;;;;;6.85;3.70;;;;;;;;;;4974119;28;20419;-95
2021/08/07 10:00:42;;;;;;;7.13;3.83;;;;;;;;;;4969036;28;20415;-96
2021/08/07 10:03:20;;;;;;;8.48;3.72;;;;;;;;;;4977620;28;20424;-96
2021/08/07 10:05:48;;;;;;;6.60;3.60;;;;;;;;;;4970968;28;20477;-96
2021/08/07 10:08:15;;;;;;;6.40;3.58;;;;;;;;;;4970506;28;20626;-96
2021/08/07 10:10:45;;;;;;;5.35;3.65;;;;;;;;;;4971118;28;20925;-96
2021/08/07 10:13:13;;;;;;;5.90;3.50;;;;;;;;;;4969399;28;20414;-96
2021/08/07 10:15:43;;;;;;;6.95;3.88;;;;;;;;;;4970690;28;20421;-96
2021/08/07 10:18:11;;;;;;;6.13;3.50;;;;;;;;;;4975427;28;20457;-96
2021/08/07 10:20:39;;;;;;;7.93;3.90;;;;;;;;;;4978713;28;20416;-96
2021/08/07 10:23:07;;;;;;;7.70;3.60;;;;;;;;;;4969349;28;20426;-96
2021/08/07 10:25:36;;;;;;;5.03;3.33;;;;;;;;;;4965464;28;20726;-96
2021/08/07 10:28:04;;;;;;;6.30;3.90;;;;;;;;;;4965622;28;20432;-96
2021/08/07 10:30:34;;;;;;;6.18;3.75;;;;;;;;;;4971529;28;20434;-96
2021/08/07 10:33:03;;;;;;;6.57;3.58;;;;;;;;;;4968849;28;20501;-96
2021/08/07 10:35:31;;;;;;;5.80;3.58;;;;;;;;;;4965244;28;20418;-96
2021/08/07 10:38:00;;;;;;;7.53;3.70;;;;;;;;;;4965429;28;20815;-90
2021/08/07 10:40:28;;;;;;;4.90;3.00;;;;;;;;;;4970336;28;20971;-96
2021/08/07 10:42:56;;;;;;;7.43;3.38;;;;;;;;;;4970125;28;20430;-96
2021/08/07 10:45:24;;;;;;;6.40;3.25;;;;;;;;;;4967311;28;20422;-96
2021/08/07 10:47:52;;;;;;;7.60;3.35;;;;;;;;;;4966140;28;20781;-95
2021/08/07 10:50:36;;;;;;;6.13;3.50;;;;;;;;;;4974474;28;20437;-96
2021/08/07 10:53:05;;;;;;;5.65;3.30;;;;;;;;;;4958429;28;20457;-96
2021/08/07 10:55:50;;;;;;;4.57;3.30;;;;;;;;;;4965437;28;20407;-96
2021/08/07 10:58:41;;;;;;;8.07;3.65;;;;;;;;;;4969510;28;20898;-96
2021/08/07 11:01:31;;;;;;;4.63;3.40;;;;;;;;;;4973613;28;20897;-96
2021/08/07 11:04:12;;;;;;;5.03;3.38;;;;;;;;;;4978593;28;20428;-96
2021/08/07 11:07:05;;;;;;;5.25;3.30;;;;;;;;;;4966387;28;20406;-96
2021/08/07 11:09:39;;;;;;;6.10;3.58;;;;;;;;;;4965210;28;20533;-96
2021/08/07 11:12:26;;;;;;;7.70;3.33;;;;;;;;;;4966018;28;20425;-96
2021/08/07 11:14:55;;;;;;;4.32;3.25;;;;;;;;;;4977940;28;20432;-96
2021/08/07 11:17:30;;;;;;;6.85;3.50;;;;;;;;;;4978464;28;20767;-96
2021/08/07 11:20:03;;;;;;;5.60;3.58;;;;;;;;;;4974104;28;20416;-96
2021/08/07 11:23:09;;;;;;;7.13;3.58;;;;;;;;;;4971246;28;20420;-96
2021/08/07 11:25:56;;;;;;;6.00;3.38;;;;;;;;;;4961838;28;20438;-95
2021/08/07 11:28:23;;;;;;;5.60;3.20;;;;;;;;;;4975130;28;20912;-96
2021/08/07 11:31:17;;;;;;;7.43;3.60;;;;;;;;;;4978463;28;20425;-96
2021/08/07 11:33:45;;;;;;;7.53;3.55;;;;;;;;;;4977904;28;20415;-96
2021/08/07 11:36:14;;;;;;;5.65;3.75;;;;;;;;;;4971277;28;20752;-96
2021/08/07 11:39:02;;;;;;;5.72;3.10;;;;;;;;;;4979003;28;20421;-96
2021/08/07 11:41:35;;;;;;;7.38;3.63;;;;;;;;;;4971984;28;20769;-96
2021/08/07 11:44:04;;;;;;;7.47;3.50;;;;;;;;;;4974740;28;20417;-96
2021/08/07 11:46:40;;;;;;;5.43;3.30;;;;;;;;;;4963959;28;20513;-96
2021/08/07 11:49:09;;;;;;;5.85;3.15;;;;;;;;;;4964862;28;20430;-96
2021/08/07 11:51:36;;;;;;;5.05;3.45;;;;;;;;;;4976811;28;20440;-96
2021/08/07 11:54:06;;;;;;;5.75;3.38;;;;;;;;;;4978472;28;20482;-96
2021/08/07 11:56:38;;;;;;;7.47;3.37;;;;;;;;;;4968468;28;20492;-96
2021/08/07 11:59:06;;;;;;;7.50;3.70;;;;;;;;;;4964501;28;20414;-96
2021/08/07 12:01:35;;;;;;;8.85;3.45;;;;;;;;;;4978638;28;20788;-96
2021/08/07 12:04:02;;;;;;;6.93;3.47;;;;;;;;;;4963539;28;20410;-96
2021/08/07 12:06:31;;;;;;;4.97;3.22;;;;;;;;;;4966542;28;20414;-96
2021/08/07 12:08:59;;;;;;;5.57;3.37;;;;;;;;;;4965185;28;20414;-96
2021/08/07 12:11:26;;;;;;;6.45;3.22;;;;;;;;;;4966153;28;20433;-96
2021/08/07 12:13:57;;;;;;;5.70;3.30;;;;;;;;;;4975072;28;20808;-96
2021/08/07 12:16:29;;;;;;;5.93;3.35;;;;;;;;;;4976040;28;20917;-96
2021/08/07 12:18:58;;;;;;;3.80;2.80;;;;;;;;;;4976428;28;20444;-96
2021/08/07 12:21:32;;;;;;;4.72;3.03;;;;;;;;;;4971926;28;20909;-96
2021/08/07 12:24:02;;;;;;;5.65;3.20;;;;;;;;;;4977065;28;20497;-96
2021/08/07 12:26:31;;;;;;;6.38;3.50;;;;;;;;;;4963903;28;20418;-96
2021/08/07 12:29:02;;;;;;;5.80;3.53;;;;;;;;;;4969010;28;20412;-96
2021/08/07 12:31:44;;;;;;;5.20;3.30;;;;;;;;;;4965835;28;20422;-96
2021/08/07 12:34:16;;;;;;;7.25;3.50;;;;;;;;;;4965895;28;20422;-96
2021/08/07 12:36:43;;;;;;;4.75;3.22;;;;;;;;;;4966826;28;20417;-96
2021/08/07 12:39:10;;;;;;;5.25;3.15;;;;;;;;;;4972692;28;20414;-96
2021/08/07 12:41:37;;;;;;;5.35;3.30;;;;;;;;;;4984001;28;20416;-96
2021/08/07 12:44:21;;;;;;;4.35;3.00;;;;;;;;;;4971731;28;20979;-96
2021/08/07 12:46:49;;;;;;;5.63;3.10;;;;;;;;;;4956476;28;20431;-95
2021/08/07 12:49:32;;;;;;;6.07;3.08;;;;;;;;;;4956802;28;20418;-96
2021/08/07 12:52:03;;;;;;;4.95;3.20;;;;;;;;;;4950864;28;20793;-96
2021/08/07 12:54:29;;;;;;;4.07;3.00;;;;;;;;;;4951146;28;20518;-96
2021/08/07 12:56:56;;;;;;;3.70;3.10;;;;;;;;;;4954317;28;20420;-96
2021/08/07 12:59:25;;;;;;;5.00;2.90;;;;;;;;;;4954408;28;20927;-96
2021/08/07 13:02:05;;;;;;;5.70;3.10;;;;;;;;;;4954868;28;20516;-96
2021/08/07 13:04:44;;;;;;;5.80;3.20;;;;;;;;;;4954428;28;20426;-96
2021/08/07 13:07:13;;;;;;;4.80;3.10;;;;;;;;;;4955524;28;20911;-96
2021/08/07 13:09:40;;;;;;;5.88;3.30;;;;;;;;;;4959311;28;20420;-96
2021/08/07 13:12:10;;;;;;;5.93;3.22;;;;;;;;;;4959517;28;20416;-96
2021/08/07 13:14:41;;;;;;;5.05;3.03;;;;;;;;;;4957577;28;20420;-96
2021/08/07 13:17:08;;;;;;;10.30;3.30;;;;;;;;;;4955198;28;20445;-96
2021/08/07 13:19:43;;;;;;;5.82;3.00;;;;;;;;;;4956228;28;20893;-96
2021/08/07 13:22:19;;;;;;;6.72;3.30;;;;;;;;;;4953015;28;20717;-96
2021/08/07 13:24:53;;;;;;;5.20;3.22;;;;;;;;;;4955620;28;20413;-96
2021/08/07 13:27:21;;;;;;;4.38;3.10;;;;;;;;;;4954412;28;20433;-96
2021/08/07 13:30:00;;;;;;;5.78;2.80;;;;;;;;;;4952072;28;20426;-96
2021/08/07 13:32:29;;;;;;;6.65;3.13;;;;;;;;;;4952139;28;20412;-96
2021/08/07 13:34:57;;;;;;;6.18;3.05;;;;;;;;;;4957866;28;20422;-96
2021/08/07 13:37:25;;;;;;;6.93;3.47;;;;;;;;;;4951844;28;20424;-95
2021/08/07 13:39:52;;;;;;;5.53;2.92;;;;;;;;;;4951111;28;20424;-96
2021/08/07 13:42:20;;;;;;;6.03;3.00;;;;;;;;;;4959355;28;20426;-96
2021/08/07 13:44:48;;;;;;;6.00;2.92;;;;;;;;;;4955258;28;20513;-96
2021/08/07 13:47:17;;;;;;;5.20;3.13;;;;;;;;;;4944849;29;20424;-96
2021/08/07 13:49:44;;;;;;;4.85;2.83;;;;;;;;;;4948488;29;20781;-96
2021/08/07 13:52:12;;;;;;;6.37;3.20;;;;;;;;;;4947327;29;20420;-96
2021/08/07 13:54:39;;;;;;;6.07;2.70;;;;;;;;;;4944479;29;20429;-96
2021/08/07 13:57:07;;;;;;;5.30;2.90;;;;;;;;;;4941894;29;20428;-96
2021/08/07 13:59:34;;;;;;;8.88;2.90;;;;;;;;;;4940590;29;20436;-96
2021/08/07 14:02:04;;;;;;;5.15;2.92;;;;;;;;;;4942476;29;20845;-96
2021/08/07 14:04:32;;;;;;;5.03;2.60;;;;;;;;;;4942058;28;20420;-96
2021/08/07 14:06:59;;;;;;;7.40;2.75;;;;;;;;;;4945449;28;20416;-96
2021/08/07 14:09:26;;;;;;;6.18;2.60;;;;;;;;;;4948311;29;20420;-96
2021/08/07 14:11:53;;;;;;;4.97;2.70;;;;;;;;;;4947569;29;20416;-96
2021/08/07 14:14:22;;;;;;;5.40;2.60;;;;;;;;;;4948149;28;20427;-96
2021/08/07 14:16:50;;;;;;;5.93;2.33;;;;;;;;;;4948134;28;20420;-96
2021/08/07 14:19:18;;;;;;;6.25;3.00;;;;;;;;;;4948421;28;20769;-96
2021/08/07 14:21:47;;;;;;;5.93;2.70;;;;;;;;;;4944050;29;20818;-96
2021/08/07 14:24:15;;;;;;;4.43;2.50;;;;;;;;;;4948303;29;20914;-96
2021/08/07 14:26:43;;;;;;;4.50;2.47;;;;;;;;;;4937975;29;20468;-96
2021/08/07 14:29:10;;;;;;;5.13;2.38;;;;;;;;;;4946146;28;20421;-94
2021/08/07 14:31:37;;;;;;;5.97;2.67;;;;;;;;;;4941795;29;20441;-94
2021/08/07 14:34:04;;;;;;;3.70;2.40;;;;;;;;;;4939763;28;20435;-95
2021/08/07 14:36:31;;;;;;;5.90;2.43;;;;;;;;;;4949589;28;20431;-95
2021/08/07 14:39:00;;;;;;;6.78;2.80;;;;;;;;;;4942833;29;20522;-94
2021/08/07 14:41:27;;;;;;;6.93;2.78;;;;;;;;;;4946299;29;20412;-95
2021/08/07 14:43:54;;;;;;;4.50;2.40;;;;;;;;;;4953543;29;20412;-94
2021/08/07 14:46:21;;;;;;;4.20;2.50;;;;;;;;;;4963241;28;20424;-94
2021/08/07 14:48:48;;;;;;;4.95;2.50;;;;;;;;;;4974588;28;20414;-95
2021/08/07 14:51:15;;;;;;;6.20;2.30;;;;;;;;;;4981983;28;20428;-94